モスクワ/シェレメーチエヴォ の空港の天気 - METARとTAF

シェレメーチエヴォ国際空港(モスクワ) ( UUEE / SVO ) - ロシア モスクワ
飛行場実況気象(Metar)
観測時間11/27 11:30 MSK (11/27 08:30 UTC)
風向・風速東 6m/s
視程4500m
天気現象弱い雪 もや
全天を覆う雲 雲底高度 240m
気温-4℃
湿度93%
気圧1033hPa
METARUUEE 270830Z 09006MPS 4500 -SN BR OVC008 M04/M05 Q1033 R06C/510145 TEMPO -FZDZ
過去の天気等 Google飛行場航空写真 Wunderground天気予報

過去48時間のMETAR

飛行場予報(TAF)
発表時間: 11/27 10:55 MSK (11/27 07:55 UTC)
予報対象時間: 27日12時 MSK ~ 28日12時 MSK
風向・風速東 6m/s
視程6000m
全天を覆う雲 雲底高度 180m
27日12時 MSK ~ 28日3時 MSK に一時的に
視程2900m
天気現象弱い氷霧雨 弱い雪 もや
全天を覆う雲 雲底高度 90m
TAF UUEE 270755Z 2709/2809 08006MPS 6000 OVC006 TXM06/2718Z TNM02/2712Z
TEMPO 2709/2724 2900 -FZDZ -SN BR OVC003